Terminal Aerodrome Forecast
Issued by NWS

Home | Current Version | Previous Version | Graphics & Text | Print | Product List | Glossary On
Versions: 1 2 3 4 5 6 7 8 9 10 11 12 13 14 15 16 17 18
000
FTUS43 KIWX 070900 AAA
TAFSBN
TAF AMD
KSBN 070944Z 0710/0806 23012KT 6SM BR SCT025 BKN035
      TEMPO 0710/0714 5SM BR BKN025
     FM071400 25011KT P6SM BKN035
     FM072000 29007KT P6SM SCT040 BKN200
     FM080000 VRB03KT P6SM BKN040=

USA.gov is the U.S. government's official web portal to all federal, state and local government web resources and services.